Terminal Aerodrome Forecast
Issued by NWS Los Angeles, CA

Home | Current Version | Previous Version | Text Only | Print | Product List | Glossary On
Versions: 1 2 3 4 5 6 7 8 9 10 11 12 13 14 15 16 17 18 19 20 21 22 23 24 25 26
000
FTUS46 KLOX 252300
TAFSMX
TAF
KSMX 252332Z 2600/2624 30010KT P6SM SCT250
     FM260300 VRB03KT P6SM SKC
     FM260500 VRB03KT P6SM OVC007
     FM260900 VRB03KT 2SM BR OVC005
     FM261200 VRB03KT 1/2SM FG VV002
     FM261500 VRB03KT 5SM BR OVC008
     FM261700 VRB03KT P6SM SCT009
     FM261900 30010KT P6SM SCT250=

USA.gov is the U.S. government's official web portal to all federal, state and local government web resources and services.